UKDR/KWG METAR and TAF weather

Enter ICAO airport designator
Station Type Date Time Source
UKDR METAR 2019/02/21 11:30 UTC NOAA

UKDR 211130Z 30010MPS CAVOK 06/M06 Q1013 R36/09//70 TEMPO 32010G16MPS


Station Type Date Time Source
UKDR Decoded METAR 2019/02/21 11:30 UTC NOAA

Krivyy Rih / Dnipropetrovs'k, Ukraine (UKDR) 48-03N 033-13-12E
Feb 21, 2019 - 06:30 AM EST / 2019.02.21 1130 UTC
Wind: from the WNW (300 degrees) at 22 MPH (19 KT):0
Visibility: greater than 7 mile(s):0
Temperature: 42 F (6 C)
Dew Point: 21 F (-6 C)
Relative Humidity: 41%
Pressure (altimeter): 29.91 in. Hg (1013 hPa)
ob: UKDR 211130Z 30010MPS CAVOK 06/M06 Q1013 R36/09//70 TEMPO 32010G16MPS
cycle: 11

Station Type Date Time Source
UKDR TAF 2019/02/21 12:00 UTC NOAA

TAF UKDR 211108Z 2112/2212 31008MPS 9999 SCT015 TX05/2112Z TNM05/2212Z
TEMPO 2112/2116 32010G16MPS SCT020CB
BECMG 2117/2119 34002MPS
TEMPO 2119/2204 2500 BR BKN007
BECMG 2204/2206 02007G12MPS 2500 -SN BLSN OVC007
TEMPO 2206/2212 1100 SN BLSN OVC004


Example: see airport list